CheckWX is a tool to help pilots better visualize weather data.  It is not intended as a substitute for an official pre-flight weather briefing.

06:29:06 UTC

TDPD METAR
Melville Hall Airport
Marigot, Dominica
Current

6 hours ago

TDPD 240000Z 29003KT 9999 BKN018 23/22 Q1013
Observed
Jan-24 @ 00:00 UTC
Wind
  • 290° at 3 KTS
Visibility
10,000+ meters
Flight Rules
MVFR
Cloud Levels
  • Broken at 1,800' AGL
Temperature
23°C / 73°F
Dewpoint
22°C / 72°F
Humidity
94%
Altimeter
29.91" Hg
Pressure
1012.92 hPa
Previous

7 hours ago

TDPD 232300Z 14003KT 9999 BKN018 25/22 Q1012
Observed
Jan-23 @ 23:00 UTC
Wind
  • 140° at 3 KTS
Visibility
10,000+ meters
Flight Rules
MVFR
Cloud Levels
  • Broken at 1,800' AGL
Temperature
25°C / 77°F
Dewpoint
22°C / 72°F
Humidity
83%
Altimeter
29.88" Hg
Pressure
1011.92 hPa
Previous

8 hours ago

TDPD 232200Z 13005KT 9999 BKN019 26/22 Q1012
Observed
Jan-23 @ 22:00 UTC
Wind
  • 130° at 5 KTS
Visibility
10,000+ meters
Flight Rules
MVFR
Cloud Levels
  • Broken at 1,900' AGL
Temperature
26°C / 79°F
Dewpoint
22°C / 72°F
Humidity
79%
Altimeter
29.88" Hg
Pressure
1011.92 hPa